sensor_id;sensor_type;location;lat;lon;timestamp;P1;durP1;ratioP1;P2;durP2;ratioP2
67372;SDS011;54257;54.496;18.412;2023-06-14T00:00:50;3.40;;;2.90;;
67372;SDS011;54257;54.496;18.412;2023-06-14T00:03:39;3.80;;;2.60;;
67372;SDS011;54257;54.496;18.412;2023-06-14T00:06:05;3.20;;;2.40;;
67372;SDS011;54257;54.496;18.412;2023-06-14T00:08:33;4.50;;;2.70;;
67372;SDS011;54257;54.496;18.412;2023-06-14T00:11:00;4.60;;;3.10;;
67372;SDS011;54257;54.496;18.412;2023-06-14T00:13:27;6.60;;;3.20;;
67372;SDS011;54257;54.496;18.412;2023-06-14T00:15:54;5.90;;;2.90;;
67372;SDS011;54257;54.496;18.412;2023-06-14T00:18:22;4.10;;;2.90;;
67372;SDS011;54257;54.496;18.412;2023-06-14T00:20:56;3.50;;;2.60;;
67372;SDS011;54257;54.496;18.412;2023-06-14T00:23:22;4.80;;;2.90;;
67372;SDS011;54257;54.496;18.412;2023-06-14T00:25:49;3.80;;;3.00;;
67372;SDS011;54257;54.496;18.412;2023-06-14T00:28:16;4.50;;;2.80;;
67372;SDS011;54257;54.496;18.412;2023-06-14T00:30:45;3.90;;;2.90;;
67372;SDS011;54257;54.496;18.412;2023-06-14T00:33:13;4.20;;;3.20;;
67372;SDS011;54257;54.496;18.412;2023-06-14T00:35:39;3.90;;;3.00;;
67372;SDS011;54257;54.496;18.412;2023-06-14T00:38:06;4.30;;;3.20;;
67372;SDS011;54257;54.496;18.412;2023-06-14T00:40:33;6.00;;;3.10;;
67372;SDS011;54257;54.496;18.412;2023-06-14T00:43:07;4.20;;;2.90;;
67372;SDS011;54257;54.496;18.412;2023-06-14T00:45:34;5.00;;;2.90;;
67372;SDS011;54257;54.496;18.412;2023-06-14T00:48:02;4.90;;;3.20;;
67372;SDS011;54257;54.496;18.412;2023-06-14T00:50:35;3.70;;;3.30;;
67372;SDS011;54257;54.496;18.412;2023-06-14T00:53:05;4.30;;;2.90;;
67372;SDS011;54257;54.496;18.412;2023-06-14T00:55:33;3.90;;;2.70;;
67372;SDS011;54257;54.496;18.412;2023-06-14T00:58:00;4.60;;;3.00;;
67372;SDS011;54257;54.496;18.412;2023-06-14T01:00:27;7.00;;;2.90;;
67372;SDS011;54257;54.496;18.412;2023-06-14T01:02:55;5.70;;;3.40;;
67372;SDS011;54257;54.496;18.412;2023-06-14T01:05:23;5.50;;;3.20;;
67372;SDS011;54257;54.496;18.412;2023-06-14T01:13:15;4.20;;;3.20;;
67372;SDS011;54257;54.496;18.412;2023-06-14T01:16:11;7.10;;;3.60;;
67372;SDS011;54257;54.496;18.412;2023-06-14T01:18:39;5.20;;;3.00;;
67372;SDS011;54257;54.496;18.412;2023-06-14T01:21:41;72.00;;;10.30;;
67372;SDS011;54257;54.496;18.412;2023-06-14T01:24:25;44.80;;;7.20;;
67372;SDS011;54257;54.496;18.412;2023-06-14T01:27:11;24.60;;;5.20;;
67372;SDS011;54257;54.496;18.412;2023-06-14T01:30:07;10.50;;;3.80;;
67372;SDS011;54257;54.496;18.412;2023-06-14T01:32:41;14.70;;;3.90;;
67372;SDS011;54257;54.496;18.412;2023-06-14T01:35:09;5.60;;;2.80;;
67372;SDS011;54257;54.496;18.412;2023-06-14T01:37:42;3.70;;;2.90;;
67372;SDS011;54257;54.496;18.412;2023-06-14T01:40:21;6.10;;;3.00;;
67372;SDS011;54257;54.496;18.412;2023-06-14T01:42:51;7.30;;;3.50;;
67372;SDS011;54257;54.496;18.412;2023-06-14T01:45:25;5.60;;;3.10;;
67372;SDS011;54257;54.496;18.412;2023-06-14T01:47:59;5.10;;;3.10;;
67372;SDS011;54257;54.496;18.412;2023-06-14T01:50:36;4.80;;;3.10;;
67372;SDS011;54257;54.496;18.412;2023-06-14T01:53:07;4.80;;;3.00;;
67372;SDS011;54257;54.496;18.412;2023-06-14T01:55:41;5.20;;;2.90;;
67372;SDS011;54257;54.496;18.412;2023-06-14T01:58:17;7.20;;;3.80;;
67372;SDS011;54257;54.496;18.412;2023-06-14T02:00:57;5.80;;;3.00;;
67372;SDS011;54257;54.496;18.412;2023-06-14T02:03:38;8.10;;;3.60;;
67372;SDS011;54257;54.496;18.412;2023-06-14T02:06:05;3.20;;;2.60;;
67372;SDS011;54257;54.496;18.412;2023-06-14T02:08:48;3.30;;;2.70;;
67372;SDS011;54257;54.496;18.412;2023-06-14T02:11:19;5.60;;;3.10;;
67372;SDS011;54257;54.496;18.412;2023-06-14T02:13:48;3.60;;;3.20;;
67372;SDS011;54257;54.496;18.412;2023-06-14T02:16:26;5.20;;;3.20;;
67372;SDS011;54257;54.496;18.412;2023-06-14T02:19:04;4.30;;;2.90;;
67372;SDS011;54257;54.496;18.412;2023-06-14T02:21:53;6.90;;;2.80;;
67372;SDS011;54257;54.496;18.412;2023-06-14T02:24:31;3.60;;;3.00;;
67372;SDS011;54257;54.496;18.412;2023-06-14T02:27:01;4.10;;;3.20;;
67372;SDS011;54257;54.496;18.412;2023-06-14T02:29:29;3.30;;;2.90;;
67372;SDS011;54257;54.496;18.412;2023-06-14T02:31:58;6.60;;;3.80;;
67372;SDS011;54257;54.496;18.412;2023-06-14T02:34:26;6.40;;;3.30;;
67372;SDS011;54257;54.496;18.412;2023-06-14T02:36:54;7.70;;;3.20;;
67372;SDS011;54257;54.496;18.412;2023-06-14T02:39:24;5.90;;;3.20;;
67372;SDS011;54257;54.496;18.412;2023-06-14T02:41:51;6.10;;;3.70;;
67372;SDS011;54257;54.496;18.412;2023-06-14T02:44:23;4.30;;;3.10;;
67372;SDS011;54257;54.496;18.412;2023-06-14T02:46:52;6.80;;;3.20;;
67372;SDS011;54257;54.496;18.412;2023-06-14T02:49:22;4.50;;;3.40;;
67372;SDS011;54257;54.496;18.412;2023-06-14T02:51:49;12.40;;;4.20;;
67372;SDS011;54257;54.496;18.412;2023-06-14T02:54:16;9.90;;;3.50;;
67372;SDS011;54257;54.496;18.412;2023-06-14T02:56:44;5.80;;;3.30;;
67372;SDS011;54257;54.496;18.412;2023-06-14T02:59:11;6.80;;;3.50;;
67372;SDS011;54257;54.496;18.412;2023-06-14T03:01:40;6.30;;;3.30;;
67372;SDS011;54257;54.496;18.412;2023-06-14T03:04:08;4.90;;;2.70;;
67372;SDS011;54257;54.496;18.412;2023-06-14T03:06:35;4.80;;;3.10;;
67372;SDS011;54257;54.496;18.412;2023-06-14T03:09:03;5.00;;;3.40;;
67372;SDS011;54257;54.496;18.412;2023-06-14T03:11:37;8.30;;;3.30;;
67372;SDS011;54257;54.496;18.412;2023-06-14T03:14:03;3.80;;;3.00;;
67372;SDS011;54257;54.496;18.412;2023-06-14T03:16:30;3.70;;;3.00;;
67372;SDS011;54257;54.496;18.412;2023-06-14T03:18:57;4.90;;;3.20;;
67372;SDS011;54257;54.496;18.412;2023-06-14T03:21:24;5.80;;;3.50;;
67372;SDS011;54257;54.496;18.412;2023-06-14T03:23:52;5.70;;;3.30;;
67372;SDS011;54257;54.496;18.412;2023-06-14T03:26:19;4.40;;;3.00;;
67372;SDS011;54257;54.496;18.412;2023-06-14T03:28:47;4.00;;;3.00;;
67372;SDS011;54257;54.496;18.412;2023-06-14T03:31:17;5.70;;;2.60;;
67372;SDS011;54257;54.496;18.412;2023-06-14T03:33:45;6.10;;;3.10;;
67372;SDS011;54257;54.496;18.412;2023-06-14T03:36:12;5.00;;;3.00;;
67372;SDS011;54257;54.496;18.412;2023-06-14T03:38:39;4.40;;;3.00;;
67372;SDS011;54257;54.496;18.412;2023-06-14T03:41:06;5.10;;;3.10;;
67372;SDS011;54257;54.496;18.412;2023-06-14T03:43:33;7.60;;;3.40;;
67372;SDS011;54257;54.496;18.412;2023-06-14T03:46:01;10.90;;;3.70;;
67372;SDS011;54257;54.496;18.412;2023-06-14T03:48:28;7.70;;;3.20;;
67372;SDS011;54257;54.496;18.412;2023-06-14T03:50:57;4.40;;;3.10;;
67372;SDS011;54257;54.496;18.412;2023-06-14T03:53:24;8.30;;;3.20;;
67372;SDS011;54257;54.496;18.412;2023-06-14T03:55:52;8.00;;;3.10;;
67372;SDS011;54257;54.496;18.412;2023-06-14T03:58:18;7.40;;;3.30;;
67372;SDS011;54257;54.496;18.412;2023-06-14T04:00:46;5.60;;;3.30;;
67372;SDS011;54257;54.496;18.412;2023-06-14T04:03:13;6.10;;;3.30;;
67372;SDS011;54257;54.496;18.412;2023-06-14T04:05:42;6.60;;;3.40;;
67372;SDS011;54257;54.496;18.412;2023-06-14T04:08:09;4.30;;;3.10;;
67372;SDS011;54257;54.496;18.412;2023-06-14T04:10:36;4.30;;;3.00;;
67372;SDS011;54257;54.496;18.412;2023-06-14T04:13:03;4.70;;;2.90;;
67372;SDS011;54257;54.496;18.412;2023-06-14T04:15:31;5.80;;;3.20;;
67372;SDS011;54257;54.496;18.412;2023-06-14T04:18:00;4.90;;;3.30;;
67372;SDS011;54257;54.496;18.412;2023-06-14T04:20:27;6.20;;;3.20;;
67372;SDS011;54257;54.496;18.412;2023-06-14T04:22:56;4.70;;;3.20;;
67372;SDS011;54257;54.496;18.412;2023-06-14T04:25:24;4.50;;;2.80;;
67372;SDS011;54257;54.496;18.412;2023-06-14T04:27:52;6.40;;;3.40;;
67372;SDS011;54257;54.496;18.412;2023-06-14T04:30:19;4.60;;;3.40;;
67372;SDS011;54257;54.496;18.412;2023-06-14T04:32:47;4.80;;;3.30;;
67372;SDS011;54257;54.496;18.412;2023-06-14T04:35:15;5.20;;;3.10;;
67372;SDS011;54257;54.496;18.412;2023-06-14T04:37:43;7.50;;;3.50;;
67372;SDS011;54257;54.496;18.412;2023-06-14T04:40:11;5.40;;;3.10;;
67372;SDS011;54257;54.496;18.412;2023-06-14T04:42:38;6.70;;;3.60;;
67372;SDS011;54257;54.496;18.412;2023-06-14T04:45:07;4.30;;;2.70;;
67372;SDS011;54257;54.496;18.412;2023-06-14T04:47:35;5.40;;;3.10;;
67372;SDS011;54257;54.496;18.412;2023-06-14T04:50:02;6.10;;;3.00;;
67372;SDS011;54257;54.496;18.412;2023-06-14T04:52:29;6.80;;;3.30;;
67372;SDS011;54257;54.496;18.412;2023-06-14T04:54:57;5.40;;;3.20;;
67372;SDS011;54257;54.496;18.412;2023-06-14T04:57:24;6.80;;;3.10;;
67372;SDS011;54257;54.496;18.412;2023-06-14T04:59:51;6.20;;;2.90;;
67372;SDS011;54257;54.496;18.412;2023-06-14T05:02:21;4.50;;;3.20;;
67372;SDS011;54257;54.496;18.412;2023-06-14T05:04:50;6.90;;;3.60;;
67372;SDS011;54257;54.496;18.412;2023-06-14T05:07:20;7.30;;;3.50;;
67372;SDS011;54257;54.496;18.412;2023-06-14T05:09:46;6.30;;;3.20;;
67372;SDS011;54257;54.496;18.412;2023-06-14T05:12:13;5.00;;;3.00;;
67372;SDS011;54257;54.496;18.412;2023-06-14T05:14:41;7.00;;;3.80;;
67372;SDS011;54257;54.496;18.412;2023-06-14T05:17:08;4.60;;;3.00;;
67372;SDS011;54257;54.496;18.412;2023-06-14T05:19:35;5.30;;;3.30;;
67372;SDS011;54257;54.496;18.412;2023-06-14T05:22:02;7.90;;;3.60;;
67372;SDS011;54257;54.496;18.412;2023-06-14T05:24:29;6.10;;;3.50;;
67372;SDS011;54257;54.496;18.412;2023-06-14T05:26:57;8.90;;;4.30;;
67372;SDS011;54257;54.496;18.412;2023-06-14T05:29:23;7.30;;;3.50;;
67372;SDS011;54257;54.496;18.412;2023-06-14T05:31:50;7.80;;;3.60;;
67372;SDS011;54257;54.496;18.412;2023-06-14T05:34:17;6.00;;;3.80;;
67372;SDS011;54257;54.496;18.412;2023-06-14T05:36:44;8.10;;;3.70;;
67372;SDS011;54257;54.496;18.412;2023-06-14T05:39:11;10.40;;;4.10;;
67372;SDS011;54257;54.496;18.412;2023-06-14T05:41:41;8.20;;;4.10;;
67372;SDS011;54257;54.496;18.412;2023-06-14T05:44:08;6.00;;;4.00;;
67372;SDS011;54257;54.496;18.412;2023-06-14T05:46:35;10.80;;;3.90;;
67372;SDS011;54257;54.496;18.412;2023-06-14T05:49:02;7.20;;;3.80;;
67372;SDS011;54257;54.496;18.412;2023-06-14T05:51:29;8.60;;;5.10;;
67372;SDS011;54257;54.496;18.412;2023-06-14T05:53:56;6.80;;;4.00;;
67372;SDS011;54257;54.496;18.412;2023-06-14T05:56:23;9.70;;;4.40;;
67372;SDS011;54257;54.496;18.412;2023-06-14T05:58:50;6.10;;;3.80;;
67372;SDS011;54257;54.496;18.412;2023-06-14T06:01:17;12.80;;;4.60;;
67372;SDS011;54257;54.496;18.412;2023-06-14T06:03:43;13.80;;;5.10;;
67372;SDS011;54257;54.496;18.412;2023-06-14T06:06:12;7.70;;;3.60;;
67372;SDS011;54257;54.496;18.412;2023-06-14T06:08:39;8.70;;;4.70;;
67372;SDS011;54257;54.496;18.412;2023-06-14T06:11:06;7.20;;;4.10;;
67372;SDS011;54257;54.496;18.412;2023-06-14T06:13:33;7.00;;;4.00;;
67372;SDS011;54257;54.496;18.412;2023-06-14T06:16:02;5.30;;;4.20;;
67372;SDS011;54257;54.496;18.412;2023-06-14T06:18:30;7.10;;;4.10;;
67372;SDS011;54257;54.496;18.412;2023-06-14T06:20:57;7.80;;;3.90;;
67372;SDS011;54257;54.496;18.412;2023-06-14T06:23:23;5.50;;;4.00;;
67372;SDS011;54257;54.496;18.412;2023-06-14T06:25:51;9.70;;;3.80;;
67372;SDS011;54257;54.496;18.412;2023-06-14T06:28:18;6.00;;;4.20;;
67372;SDS011;54257;54.496;18.412;2023-06-14T06:30:45;12.50;;;4.80;;
67372;SDS011;54257;54.496;18.412;2023-06-14T06:33:12;7.60;;;4.00;;
67372;SDS011;54257;54.496;18.412;2023-06-14T06:35:40;7.50;;;4.00;;
67372;SDS011;54257;54.496;18.412;2023-06-14T06:38:07;8.10;;;4.10;;
67372;SDS011;54257;54.496;18.412;2023-06-14T06:40:35;7.70;;;4.10;;
67372;SDS011;54257;54.496;18.412;2023-06-14T06:43:02;9.20;;;3.90;;
67372;SDS011;54257;54.496;18.412;2023-06-14T06:45:29;10.10;;;4.20;;
67372;SDS011;54257;54.496;18.412;2023-06-14T06:47:57;5.60;;;3.70;;
67372;SDS011;54257;54.496;18.412;2023-06-14T06:50:24;8.50;;;3.90;;
67372;SDS011;54257;54.496;18.412;2023-06-14T06:52:51;5.70;;;3.70;;
67372;SDS011;54257;54.496;18.412;2023-06-14T06:55:19;12.30;;;5.10;;
67372;SDS011;54257;54.496;18.412;2023-06-14T06:57:46;7.80;;;3.80;;
67372;SDS011;54257;54.496;18.412;2023-06-14T07:00:13;7.40;;;3.60;;
67372;SDS011;54257;54.496;18.412;2023-06-14T07:02:41;5.70;;;3.90;;
67372;SDS011;54257;54.496;18.412;2023-06-14T07:05:07;6.20;;;3.90;;
67372;SDS011;54257;54.496;18.412;2023-06-14T07:07:35;8.70;;;4.20;;
67372;SDS011;54257;54.496;18.412;2023-06-14T07:10:02;6.30;;;4.00;;
67372;SDS011;54257;54.496;18.412;2023-06-14T07:12:31;10.00;;;4.20;;
67372;SDS011;54257;54.496;18.412;2023-06-14T07:15:00;6.40;;;3.80;;
67372;SDS011;54257;54.496;18.412;2023-06-14T07:17:27;9.00;;;4.30;;
67372;SDS011;54257;54.496;18.412;2023-06-14T07:19:54;9.10;;;4.10;;
67372;SDS011;54257;54.496;18.412;2023-06-14T07:22:21;7.40;;;4.30;;
67372;SDS011;54257;54.496;18.412;2023-06-14T07:24:47;11.30;;;4.20;;
67372;SDS011;54257;54.496;18.412;2023-06-14T07:27:14;8.00;;;4.60;;
67372;SDS011;54257;54.496;18.412;2023-06-14T07:29:41;8.90;;;4.00;;
67372;SDS011;54257;54.496;18.412;2023-06-14T07:32:08;8.80;;;4.20;;
67372;SDS011;54257;54.496;18.412;2023-06-14T07:34:35;7.90;;;3.80;;
67372;SDS011;54257;54.496;18.412;2023-06-14T07:37:01;14.70;;;5.10;;
67372;SDS011;54257;54.496;18.412;2023-06-14T07:39:31;6.20;;;4.50;;
67372;SDS011;54257;54.496;18.412;2023-06-14T07:41:58;7.00;;;4.00;;
67372;SDS011;54257;54.496;18.412;2023-06-14T07:44:27;8.20;;;4.20;;
67372;SDS011;54257;54.496;18.412;2023-06-14T07:46:56;7.70;;;4.00;;
67372;SDS011;54257;54.496;18.412;2023-06-14T07:49:26;15.30;;;5.20;;
67372;SDS011;54257;54.496;18.412;2023-06-14T07:51:54;9.10;;;3.80;;
67372;SDS011;54257;54.496;18.412;2023-06-14T07:54:23;5.90;;;4.10;;
67372;SDS011;54257;54.496;18.412;2023-06-14T07:56:52;9.00;;;3.70;;
67372;SDS011;54257;54.496;18.412;2023-06-14T07:59:19;14.00;;;4.20;;
67372;SDS011;54257;54.496;18.412;2023-06-14T08:01:46;5.60;;;4.10;;
67372;SDS011;54257;54.496;18.412;2023-06-14T08:04:14;6.40;;;4.50;;
67372;SDS011;54257;54.496;18.412;2023-06-14T08:06:42;8.90;;;4.50;;
67372;SDS011;54257;54.496;18.412;2023-06-14T08:09:12;9.70;;;4.20;;
67372;SDS011;54257;54.496;18.412;2023-06-14T08:11:39;8.80;;;4.10;;
67372;SDS011;54257;54.496;18.412;2023-06-14T08:14:06;7.40;;;4.80;;
67372;SDS011;54257;54.496;18.412;2023-06-14T08:16:33;10.90;;;4.10;;
67372;SDS011;54257;54.496;18.412;2023-06-14T08:19:00;9.80;;;4.10;;
67372;SDS011;54257;54.496;18.412;2023-06-14T08:21:27;10.00;;;4.00;;
67372;SDS011;54257;54.496;18.412;2023-06-14T08:23:55;8.00;;;4.10;;
67372;SDS011;54257;54.496;18.412;2023-06-14T08:26:22;17.10;;;5.20;;
67372;SDS011;54257;54.496;18.412;2023-06-14T08:28:49;10.60;;;4.10;;
67372;SDS011;54257;54.496;18.412;2023-06-14T08:31:17;8.70;;;4.20;;
67372;SDS011;54257;54.496;18.412;2023-06-14T08:33:44;10.70;;;4.40;;
67372;SDS011;54257;54.496;18.412;2023-06-14T08:36:12;5.90;;;3.40;;
67372;SDS011;54257;54.496;18.412;2023-06-14T08:38:39;5.70;;;3.70;;
67372;SDS011;54257;54.496;18.412;2023-06-14T08:41:06;6.00;;;3.70;;
67372;SDS011;54257;54.496;18.412;2023-06-14T08:43:34;5.50;;;3.70;;
67372;SDS011;54257;54.496;18.412;2023-06-14T08:46:02;10.30;;;3.80;;
67372;SDS011;54257;54.496;18.412;2023-06-14T08:48:30;5.80;;;3.50;;
67372;SDS011;54257;54.496;18.412;2023-06-14T08:51:01;9.60;;;3.40;;
67372;SDS011;54257;54.496;18.412;2023-06-14T08:53:30;9.80;;;3.50;;
67372;SDS011;54257;54.496;18.412;2023-06-14T08:56:01;5.60;;;3.70;;
67372;SDS011;54257;54.496;18.412;2023-06-14T08:58:31;5.10;;;3.50;;
67372;SDS011;54257;54.496;18.412;2023-06-14T09:01:03;9.40;;;3.40;;
67372;SDS011;54257;54.496;18.412;2023-06-14T09:03:31;5.50;;;3.30;;
67372;SDS011;54257;54.496;18.412;2023-06-14T09:05:59;5.00;;;3.20;;
67372;SDS011;54257;54.496;18.412;2023-06-14T09:08:28;8.30;;;3.50;;
67372;SDS011;54257;54.496;18.412;2023-06-14T09:10:57;3.60;;;2.80;;
67372;SDS011;54257;54.496;18.412;2023-06-14T09:13:26;6.10;;;3.00;;
67372;SDS011;54257;54.496;18.412;2023-06-14T09:15:53;4.80;;;3.20;;
67372;SDS011;54257;54.496;18.412;2023-06-14T09:18:20;4.70;;;3.00;;
67372;SDS011;54257;54.496;18.412;2023-06-14T09:20:47;6.80;;;3.20;;
67372;SDS011;54257;54.496;18.412;2023-06-14T09:23:17;5.70;;;2.90;;
67372;SDS011;54257;54.496;18.412;2023-06-14T09:25:47;4.70;;;2.70;;
67372;SDS011;54257;54.496;18.412;2023-06-14T09:28:14;8.10;;;3.40;;
67372;SDS011;54257;54.496;18.412;2023-06-14T09:30:41;5.80;;;2.80;;
67372;SDS011;54257;54.496;18.412;2023-06-14T09:33:08;6.30;;;2.80;;
67372;SDS011;54257;54.496;18.412;2023-06-14T09:35:35;5.60;;;3.50;;
67372;SDS011;54257;54.496;18.412;2023-06-14T09:38:03;4.50;;;3.10;;
67372;SDS011;54257;54.496;18.412;2023-06-14T09:40:33;5.70;;;3.20;;
67372;SDS011;54257;54.496;18.412;2023-06-14T09:43:03;7.20;;;3.20;;
67372;SDS011;54257;54.496;18.412;2023-06-14T09:45:32;4.50;;;3.60;;
67372;SDS011;54257;54.496;18.412;2023-06-14T09:47:59;7.00;;;3.30;;
67372;SDS011;54257;54.496;18.412;2023-06-14T09:50:34;4.50;;;3.60;;
67372;SDS011;54257;54.496;18.412;2023-06-14T09:53:02;4.90;;;2.90;;
67372;SDS011;54257;54.496;18.412;2023-06-14T09:55:37;7.20;;;3.10;;
67372;SDS011;54257;54.496;18.412;2023-06-14T09:58:07;4.90;;;3.00;;
67372;SDS011;54257;54.496;18.412;2023-06-14T10:00:36;5.40;;;3.50;;
67372;SDS011;54257;54.496;18.412;2023-06-14T10:05:47;6.10;;;3.10;;
67372;SDS011;54257;54.496;18.412;2023-06-14T10:08:18;9.90;;;3.30;;
67372;SDS011;54257;54.496;18.412;2023-06-14T10:10:48;9.10;;;3.50;;
67372;SDS011;54257;54.496;18.412;2023-06-14T10:13:15;8.20;;;3.70;;
67372;SDS011;54257;54.496;18.412;2023-06-14T10:21:16;4.70;;;3.80;;
67372;SDS011;54257;54.496;18.412;2023-06-14T10:23:52;6.00;;;3.80;;
67372;SDS011;54257;54.496;18.412;2023-06-14T10:26:20;6.00;;;3.80;;
67372;SDS011;54257;54.496;18.412;2023-06-14T10:31:48;6.80;;;4.30;;
67372;SDS011;54257;54.496;18.412;2023-06-14T10:34:29;11.60;;;5.40;;
67372;SDS011;54257;54.496;18.412;2023-06-14T10:37:03;8.70;;;4.90;;
67372;SDS011;54257;54.496;18.412;2023-06-14T10:39:31;8.60;;;5.20;;
67372;SDS011;54257;54.496;18.412;2023-06-14T10:42:12;8.80;;;4.50;;
67372;SDS011;54257;54.496;18.412;2023-06-14T10:47:24;9.70;;;4.60;;
67372;SDS011;54257;54.496;18.412;2023-06-14T10:50:06;7.80;;;3.90;;
67372;SDS011;54257;54.496;18.412;2023-06-14T10:52:38;7.30;;;4.30;;
67372;SDS011;54257;54.496;18.412;2023-06-14T10:55:15;8.30;;;4.70;;
67372;SDS011;54257;54.496;18.412;2023-06-14T10:57:46;11.20;;;5.40;;
67372;SDS011;54257;54.496;18.412;2023-06-14T11:00:21;8.00;;;4.40;;
67372;SDS011;54257;54.496;18.412;2023-06-14T11:11:23;6.00;;;3.80;;
67372;SDS011;54257;54.496;18.412;2023-06-14T11:13:56;5.90;;;3.70;;
67372;SDS011;54257;54.496;18.412;2023-06-14T11:16:25;4.80;;;3.70;;
67372;SDS011;54257;54.496;18.412;2023-06-14T11:18:55;7.40;;;3.50;;
67372;SDS011;54257;54.496;18.412;2023-06-14T11:21:23;12.60;;;4.30;;
67372;SDS011;54257;54.496;18.412;2023-06-14T11:23:51;5.50;;;3.60;;
67372;SDS011;54257;54.496;18.412;2023-06-14T11:26:26;6.90;;;4.00;;
67372;SDS011;54257;54.496;18.412;2023-06-14T11:28:55;3.80;;;3.30;;
67372;SDS011;54257;54.496;18.412;2023-06-14T11:31:26;5.00;;;3.00;;
67372;SDS011;54257;54.496;18.412;2023-06-14T11:33:54;6.70;;;3.30;;
67372;SDS011;54257;54.496;18.412;2023-06-14T11:36:22;5.80;;;3.20;;
67372;SDS011;54257;54.496;18.412;2023-06-14T11:39:03;7.80;;;3.20;;
67372;SDS011;54257;54.496;18.412;2023-06-14T11:41:36;3.60;;;2.90;;
67372;SDS011;54257;54.496;18.412;2023-06-14T11:44:05;5.80;;;3.30;;
67372;SDS011;54257;54.496;18.412;2023-06-14T11:46:33;10.20;;;4.10;;
67372;SDS011;54257;54.496;18.412;2023-06-14T11:49:03;14.30;;;4.40;;
67372;SDS011;54257;54.496;18.412;2023-06-14T11:51:31;5.40;;;3.30;;
67372;SDS011;54257;54.496;18.412;2023-06-14T11:54:01;5.10;;;2.80;;
67372;SDS011;54257;54.496;18.412;2023-06-14T11:56:30;4.90;;;3.20;;
67372;SDS011;54257;54.496;18.412;2023-06-14T11:58:58;6.30;;;3.10;;
67372;SDS011;54257;54.496;18.412;2023-06-14T12:01:25;7.40;;;3.10;;
67372;SDS011;54257;54.496;18.412;2023-06-14T12:03:53;4.10;;;3.20;;
67372;SDS011;54257;54.496;18.412;2023-06-14T12:06:28;7.50;;;3.50;;
67372;SDS011;54257;54.496;18.412;2023-06-14T12:08:59;4.60;;;2.80;;
67372;SDS011;54257;54.496;18.412;2023-06-14T12:11:32;7.40;;;3.20;;
67372;SDS011;54257;54.496;18.412;2023-06-14T12:14:02;4.10;;;3.00;;
67372;SDS011;54257;54.496;18.412;2023-06-14T12:16:31;3.90;;;2.90;;
67372;SDS011;54257;54.496;18.412;2023-06-14T12:19:08;6.30;;;3.10;;
67372;SDS011;54257;54.496;18.412;2023-06-14T12:21:38;3.30;;;3.00;;
67372;SDS011;54257;54.496;18.412;2023-06-14T12:24:07;3.90;;;2.80;;
67372;SDS011;54257;54.496;18.412;2023-06-14T12:26:37;4.50;;;2.80;;
67372;SDS011;54257;54.496;18.412;2023-06-14T12:29:05;8.70;;;3.40;;
67372;SDS011;54257;54.496;18.412;2023-06-14T12:31:33;4.60;;;3.00;;
67372;SDS011;54257;54.496;18.412;2023-06-14T12:34:00;6.40;;;3.10;;
67372;SDS011;54257;54.496;18.412;2023-06-14T12:36:27;4.90;;;3.20;;
67372;SDS011;54257;54.496;18.412;2023-06-14T12:38:55;4.00;;;3.40;;
67372;SDS011;54257;54.496;18.412;2023-06-14T12:41:21;6.70;;;3.10;;
67372;SDS011;54257;54.496;18.412;2023-06-14T12:43:49;4.50;;;3.10;;
67372;SDS011;54257;54.496;18.412;2023-06-14T12:46:16;4.80;;;3.30;;
67372;SDS011;54257;54.496;18.412;2023-06-14T12:48:43;6.50;;;3.60;;
67372;SDS011;54257;54.496;18.412;2023-06-14T12:51:10;7.10;;;2.90;;
67372;SDS011;54257;54.496;18.412;2023-06-14T12:53:37;5.40;;;2.20;;
67372;SDS011;54257;54.496;18.412;2023-06-14T12:56:04;5.40;;;2.90;;
67372;SDS011;54257;54.496;18.412;2023-06-14T12:58:31;7.40;;;3.00;;
67372;SDS011;54257;54.496;18.412;2023-06-14T13:00:59;3.90;;;3.20;;
67372;SDS011;54257;54.496;18.412;2023-06-14T13:03:26;5.00;;;3.00;;
67372;SDS011;54257;54.496;18.412;2023-06-14T13:05:53;4.00;;;3.00;;
67372;SDS011;54257;54.496;18.412;2023-06-14T13:08:20;7.10;;;3.30;;
67372;SDS011;54257;54.496;18.412;2023-06-14T13:10:47;9.20;;;3.80;;
67372;SDS011;54257;54.496;18.412;2023-06-14T13:13:14;4.30;;;3.10;;
67372;SDS011;54257;54.496;18.412;2023-06-14T13:15:42;5.90;;;2.70;;
67372;SDS011;54257;54.496;18.412;2023-06-14T13:18:10;5.40;;;2.80;;
67372;SDS011;54257;54.496;18.412;2023-06-14T13:20:39;7.10;;;3.00;;
67372;SDS011;54257;54.496;18.412;2023-06-14T13:23:06;7.50;;;3.00;;
67372;SDS011;54257;54.496;18.412;2023-06-14T13:25:34;5.00;;;3.00;;
67372;SDS011;54257;54.496;18.412;2023-06-14T13:28:02;4.80;;;2.60;;
67372;SDS011;54257;54.496;18.412;2023-06-14T13:30:30;8.80;;;3.30;;
67372;SDS011;54257;54.496;18.412;2023-06-14T13:32:59;4.60;;;2.80;;
67372;SDS011;54257;54.496;18.412;2023-06-14T13:35:26;5.90;;;2.80;;
67372;SDS011;54257;54.496;18.412;2023-06-14T13:37:53;5.90;;;3.20;;
67372;SDS011;54257;54.496;18.412;2023-06-14T13:40:19;5.60;;;3.10;;
67372;SDS011;54257;54.496;18.412;2023-06-14T13:42:46;8.40;;;2.70;;
67372;SDS011;54257;54.496;18.412;2023-06-14T13:45:15;5.50;;;2.50;;
67372;SDS011;54257;54.496;18.412;2023-06-14T13:47:41;3.70;;;2.60;;
67372;SDS011;54257;54.496;18.412;2023-06-14T13:50:10;6.50;;;3.50;;
67372;SDS011;54257;54.496;18.412;2023-06-14T13:52:38;6.20;;;3.30;;
67372;SDS011;54257;54.496;18.412;2023-06-14T13:55:05;7.20;;;2.90;;
67372;SDS011;54257;54.496;18.412;2023-06-14T13:57:32;4.80;;;3.20;;
67372;SDS011;54257;54.496;18.412;2023-06-14T13:59:59;3.90;;;2.90;;
67372;SDS011;54257;54.496;18.412;2023-06-14T14:02:27;7.40;;;3.20;;
67372;SDS011;54257;54.496;18.412;2023-06-14T14:04:55;8.60;;;3.50;;
67372;SDS011;54257;54.496;18.412;2023-06-14T14:07:24;8.90;;;3.50;;
67372;SDS011;54257;54.496;18.412;2023-06-14T14:09:51;4.90;;;3.10;;
67372;SDS011;54257;54.496;18.412;2023-06-14T14:12:19;6.60;;;2.90;;
67372;SDS011;54257;54.496;18.412;2023-06-14T14:14:46;8.60;;;3.10;;
67372;SDS011;54257;54.496;18.412;2023-06-14T14:17:13;4.90;;;2.90;;
67372;SDS011;54257;54.496;18.412;2023-06-14T14:19:40;4.50;;;3.10;;
67372;SDS011;54257;54.496;18.412;2023-06-14T14:22:07;5.40;;;2.60;;
67372;SDS011;54257;54.496;18.412;2023-06-14T14:24:34;5.10;;;2.80;;
67372;SDS011;54257;54.496;18.412;2023-06-14T14:27:02;4.10;;;2.90;;
67372;SDS011;54257;54.496;18.412;2023-06-14T14:29:29;7.70;;;3.00;;
67372;SDS011;54257;54.496;18.412;2023-06-14T14:31:58;4.20;;;3.10;;
67372;SDS011;54257;54.496;18.412;2023-06-14T14:34:25;3.50;;;2.90;;
67372;SDS011;54257;54.496;18.412;2023-06-14T14:36:53;7.40;;;2.70;;
67372;SDS011;54257;54.496;18.412;2023-06-14T14:39:20;2.80;;;2.50;;
67372;SDS011;54257;54.496;18.412;2023-06-14T14:41:47;5.80;;;2.50;;
67372;SDS011;54257;54.496;18.412;2023-06-14T14:44:14;3.40;;;2.60;;
67372;SDS011;54257;54.496;18.412;2023-06-14T14:46:41;5.70;;;2.70;;
67372;SDS011;54257;54.496;18.412;2023-06-14T14:49:08;4.30;;;2.90;;
67372;SDS011;54257;54.496;18.412;2023-06-14T14:51:34;3.20;;;2.90;;
67372;SDS011;54257;54.496;18.412;2023-06-14T14:54:01;6.00;;;2.80;;
67372;SDS011;54257;54.496;18.412;2023-06-14T14:56:28;5.30;;;2.70;;
67372;SDS011;54257;54.496;18.412;2023-06-14T14:58:55;4.80;;;2.80;;
67372;SDS011;54257;54.496;18.412;2023-06-14T15:01:22;5.60;;;2.50;;
67372;SDS011;54257;54.496;18.412;2023-06-14T15:03:48;6.80;;;2.70;;
67372;SDS011;54257;54.496;18.412;2023-06-14T15:06:15;6.70;;;2.50;;
67372;SDS011;54257;54.496;18.412;2023-06-14T15:08:44;3.80;;;2.50;;
67372;SDS011;54257;54.496;18.412;2023-06-14T15:11:11;5.00;;;2.70;;